Garberville, California
Current Conditions -  °F | °C
As of 1:30 AM on Sunday 26 Oct 2014 (Local Time) from KFOT Reporting Station
Overcast Overcast  
Wind Chill: 50°   Ceiling: 3000
Heat Index: 50°   Visibility: 2mi
Dew Point: 50°   Wind: 7mph
Humidity: 100%   Direction: 140°SE
Pressure: 30.19"   Gusts: NA
Location:  40.1°N, 123.8°W
Report Text: KFOT 260830Z AUTO 14006KT 2SM SCT002 BKN030 OVC055 10/10 A3019 RMK AO1 VSBY 3/4V5
Loading
Personal Weather Stations






























Interactive Weather Map
Tropical Storm Tracking
New forecast layout! Learn more

10-Day Weather Forecast

Advertisements
Track Severe Weather on mobile